Beaumont, Belgium
Current Conditions -  °F | °C
As of 7:55 PM on Friday 21 Nov 2014 (Local Time) from EBFS Reporting Station
Broken Clouds Broken Clouds  
Wind Chill: 38°   Ceiling: 600
Heat Index: 43°   Visibility: 4mi
Dew Point: 41°   Wind: 8mph
Humidity: 93%   Direction: 140°SE
Pressure: 30.06"   Gusts: NA
Location:  50.24°N, 4.24°E
Report Text: EBFS 211855Z 14007KT 7000 BKN006 06/05 Q1018 YLO
Loading
Personal Weather Stations






























Interactive Weather Map New forecast layout! Learn more

10-Day Weather Forecast

Advertisements
Track Severe Weather on mobile